createdAt,value
2018-03-15T00:00:55.434Z,66.50
2018-03-15T00:03:28.871Z,66.20
2018-03-15T00:05:57.187Z,65.70
2018-03-15T00:08:24.788Z,65.70
2018-03-15T00:10:53.321Z,65.70
2018-03-15T00:13:21.929Z,65.40
2018-03-15T00:15:50.329Z,66.20
2018-03-15T00:18:18.359Z,66.70
2018-03-15T00:20:46.755Z,66.50
2018-03-15T00:23:14.367Z,66.90
2018-03-15T00:25:42.664Z,67.90
2018-03-15T00:28:10.194Z,68.60
2018-03-15T00:30:39.083Z,67.90
2018-03-15T00:33:07.394Z,68.00
2018-03-15T00:35:34.902Z,68.00
2018-03-15T00:38:02.863Z,67.90
2018-03-15T00:40:30.507Z,67.70
2018-03-15T00:42:58.117Z,67.50
2018-03-15T00:45:27.293Z,67.70
2018-03-15T00:47:54.856Z,67.70
2018-03-15T00:50:23.386Z,67.80
2018-03-15T00:52:50.906Z,68.40
2018-03-15T00:55:18.435Z,68.90
2018-03-15T00:57:45.949Z,68.70
2018-03-15T01:00:13.473Z,68.90
2018-03-15T01:02:41.429Z,69.00
2018-03-15T01:05:09.019Z,69.10
2018-03-15T01:07:37.338Z,69.20
2018-03-15T01:10:04.853Z,69.20
2018-03-15T01:12:37.242Z,69.40
2018-03-15T01:15:05.528Z,69.80
2018-03-15T01:17:33.065Z,69.80
2018-03-15T01:20:01.344Z,70.90
2018-03-15T01:22:29.626Z,70.80
2018-03-15T01:24:57.905Z,71.30
2018-03-15T01:27:26.198Z,71.30
2018-03-15T01:29:53.747Z,71.30
2018-03-15T01:32:22.018Z,71.30
2018-03-15T01:34:50.297Z,71.70
2018-03-15T01:37:18.736Z,72.20
2018-03-15T01:39:47.024Z,72.50
2018-03-15T01:42:14.536Z,72.50
2018-03-15T01:44:42.050Z,72.40
2018-03-15T01:47:09.572Z,72.60
2018-03-15T02:06:47.234Z,77.30
2018-03-15T02:09:15.578Z,77.10
2018-03-15T02:11:43.951Z,77.10
2018-03-15T02:14:11.508Z,76.60
2018-03-15T02:16:39.072Z,76.40
2018-03-15T02:19:10.814Z,75.80
2018-03-15T02:21:38.690Z,75.80
2018-03-15T02:24:06.213Z,76.40
2018-03-15T02:26:35.099Z,77.30
2018-03-15T02:29:03.369Z,77.70
2018-03-15T02:44:31.875Z,77.60
2018-03-15T02:46:59.413Z,82.00
2018-03-15T02:49:27.685Z,80.40
2018-03-15T02:51:55.640Z,80.40
2018-03-15T02:54:23.809Z,79.50
2018-03-15T02:56:51.345Z,79.40
2018-03-15T02:59:18.886Z,79.10
2018-03-15T03:01:46.450Z,78.80
2018-03-15T03:04:13.953Z,78.90
2018-03-15T03:06:46.134Z,78.80
2018-03-15T03:09:13.659Z,78.80
2018-03-15T03:11:41.168Z,78.90
2018-03-15T03:14:08.696Z,79.30
2018-03-15T03:16:36.240Z,79.20
2018-03-15T03:19:03.758Z,79.20
2018-03-15T03:21:31.381Z,78.50
2018-03-15T03:26:33.844Z,78.80
2018-03-15T03:29:01.356Z,78.70
2018-03-15T03:31:30.053Z,79.40
2018-03-15T03:33:58.235Z,78.60
2018-03-15T03:36:26.100Z,78.20
2018-03-15T03:38:54.174Z,78.30
2018-03-15T03:41:22.136Z,78.50
2018-03-15T03:43:49.641Z,78.50
2018-03-15T03:46:18.076Z,78.30
2018-03-15T03:48:45.597Z,78.00
2018-03-15T03:51:13.241Z,78.60
2018-03-15T03:53:40.760Z,78.50
2018-03-15T03:56:08.289Z,78.90
2018-03-15T03:58:40.141Z,78.90
2018-03-15T04:01:09.137Z,79.60
2018-03-15T04:03:37.837Z,79.50
2018-03-15T04:06:06.113Z,79.00
2018-03-15T04:08:34.396Z,79.00
2018-03-15T04:11:02.664Z,78.70
2018-03-15T04:13:30.952Z,79.20
2018-03-15T04:15:58.943Z,79.10
2018-03-15T04:18:28.061Z,79.20
2018-03-15T04:20:55.573Z,79.50
2018-03-15T04:23:23.096Z,78.90
2018-03-15T04:25:54.253Z,78.70
2018-03-15T04:28:21.809Z,79.10
2018-03-15T04:30:49.334Z,79.00
2018-03-15T04:33:16.992Z,78.70
2018-03-15T04:35:44.553Z,78.80
2018-03-15T04:38:12.097Z,79.50
2018-03-15T04:53:44.972Z,80.00
2018-03-15T04:56:16.500Z,82.20
2018-03-15T04:58:45.213Z,80.40
2018-03-15T05:01:12.750Z,80.30
2018-03-15T05:03:40.266Z,80.10
2018-03-15T05:08:50.770Z,79.40
2018-03-15T08:20:56.888Z,52.00
2018-03-15T08:23:24.419Z,52.10
2018-03-15T08:25:52.684Z,53.60
2018-03-15T08:28:21.155Z,54.40
2018-03-15T08:30:48.742Z,54.40
2018-03-15T08:33:16.261Z,55.30
2018-03-15T08:35:52.390Z,55.00
2018-03-15T08:38:19.909Z,55.50
2018-03-15T08:40:48.191Z,49.60
2018-03-15T08:43:16.475Z,48.10
2018-03-15T08:45:44.005Z,48.00
2018-03-15T08:48:13.175Z,45.80
2018-03-15T08:50:40.684Z,48.00
2018-03-15T08:53:09.893Z,45.30
2018-03-15T08:55:37.428Z,45.30
2018-03-15T08:58:06.266Z,45.00
2018-03-15T09:02:30.439Z,44.60
2018-03-15T09:05:02.621Z,45.60
2018-03-15T09:07:34.013Z,45.40
2018-03-15T09:10:02.399Z,45.80
2018-03-15T09:12:29.962Z,45.50
2018-03-15T09:14:57.484Z,46.10
2018-03-15T09:17:29.515Z,48.50
2018-03-15T09:19:57.200Z,48.40
2018-03-15T09:22:24.739Z,47.60
2018-03-15T09:24:52.265Z,46.30
2018-03-15T09:27:20.384Z,47.20
2018-03-15T09:29:48.047Z,47.50
2018-03-15T09:32:15.796Z,48.10
2018-03-15T09:34:43.683Z,47.70
2018-03-15T09:37:11.695Z,47.10
2018-03-15T09:39:39.382Z,46.70
2018-03-15T09:51:53.607Z,50.10
2018-03-15T09:54:21.154Z,50.00
2018-03-15T09:56:49.445Z,46.30
2018-03-15T09:59:17.006Z,46.20
2018-03-15T10:01:45.498Z,46.90
2018-03-15T10:04:13.917Z,47.80
2018-03-15T10:06:41.457Z,48.20
2018-03-15T10:09:09.189Z,49.20
2018-03-15T10:11:37.334Z,48.70
2018-03-15T10:14:05.477Z,47.00
2018-03-15T10:16:33.049Z,45.10
2018-03-15T10:19:02.017Z,45.30
2018-03-15T10:21:29.622Z,43.30
2018-03-15T10:23:57.196Z,43.30
2018-03-15T10:26:25.561Z,43.40
2018-03-15T10:28:53.960Z,44.10
2018-03-15T10:31:22.256Z,43.90
2018-03-15T10:33:49.804Z,43.80
2018-03-15T10:36:17.354Z,42.60
2018-03-15T10:38:45.724Z,43.50
2018-03-15T10:41:14.048Z,44.80
2018-03-15T10:43:42.426Z,44.80
2018-03-15T10:46:09.964Z,46.60
2018-03-15T10:48:37.643Z,46.60
2018-03-15T10:51:07.390Z,47.00
2018-03-15T10:53:35.498Z,45.70
2018-03-15T10:56:04.523Z,47.00
2018-03-15T10:58:32.074Z,46.80
2018-03-15T11:01:05.434Z,45.40
2018-03-15T11:03:43.853Z,43.10
2018-03-15T11:06:12.219Z,43.50
2018-03-15T11:08:39.805Z,43.50
2018-03-15T11:11:08.130Z,44.40
2018-03-15T11:13:36.285Z,44.40
2018-03-15T11:16:03.841Z,44.10
2018-03-15T11:18:31.396Z,42.70
2018-03-15T11:20:58.956Z,43.10
2018-03-15T11:23:28.342Z,42.00
2018-03-15T11:25:55.905Z,41.50
2018-03-15T11:28:27.897Z,41.20
2018-03-15T11:30:55.500Z,41.30
2018-03-15T11:33:23.031Z,39.70
2018-03-15T11:35:51.178Z,39.30
2018-03-15T11:38:18.737Z,40.20
2018-03-15T11:40:50.457Z,39.90
2018-03-15T11:43:18.001Z,40.30
2018-03-15T11:45:49.470Z,41.40
2018-03-15T11:48:21.074Z,41.50
2018-03-15T11:50:49.787Z,42.60
2018-03-15T11:53:18.083Z,41.80
2018-03-15T11:55:46.530Z,41.50
2018-03-15T11:58:14.395Z,41.20
2018-03-15T12:00:42.003Z,42.30
2018-03-15T12:03:09.478Z,42.50
2018-03-15T12:05:38.021Z,40.20
2018-03-15T12:08:05.567Z,39.70
2018-03-15T12:10:33.237Z,40.40
2018-03-15T12:13:00.809Z,39.90
2018-03-15T12:15:28.340Z,41.10
2018-03-15T12:18:00.094Z,42.60
2018-03-15T12:20:27.630Z,42.10
2018-03-15T12:22:55.953Z,43.70
2018-03-15T12:25:24.939Z,43.50
2018-03-15T12:27:57.218Z,44.20
2018-03-15T12:30:25.352Z,44.80
2018-03-15T12:32:52.879Z,44.50
2018-03-15T12:35:21.290Z,44.00
2018-03-15T12:37:49.654Z,43.80
2018-03-15T12:40:18.518Z,45.00
2018-03-15T12:42:46.037Z,44.80
2018-03-15T12:45:15.386Z,44.80
2018-03-15T12:47:43.497Z,42.90
2018-03-15T12:50:11.221Z,41.00
2018-03-15T12:52:40.388Z,40.70
2018-03-15T12:55:07.904Z,39.80
2018-03-15T12:57:36.185Z,43.80
2018-03-15T13:00:08.380Z,42.90
2018-03-15T13:02:35.926Z,42.80
2018-03-15T13:05:03.443Z,42.90
2018-03-15T13:07:30.967Z,42.20
2018-03-15T13:09:58.487Z,41.80
2018-03-15T13:12:26.801Z,40.70
2018-03-15T13:14:54.330Z,40.70
2018-03-15T13:17:22.650Z,41.20
2018-03-15T13:19:50.430Z,41.20
2018-03-15T13:22:18.001Z,41.20
2018-03-15T13:24:46.570Z,40.40
2018-03-15T13:27:14.094Z,40.00
2018-03-15T13:29:42.440Z,41.60
2018-03-15T13:32:15.303Z,43.20
2018-03-15T13:34:42.845Z,43.20
2018-03-15T13:37:10.361Z,44.50
2018-03-15T13:39:38.634Z,45.80
2018-03-15T13:42:06.918Z,45.40
2018-03-15T13:44:34.435Z,45.40
2018-03-15T13:47:01.981Z,45.70
2018-03-15T13:49:29.511Z,46.40
2018-03-15T13:51:57.117Z,46.30
2018-03-15T13:54:24.600Z,45.00
2018-03-15T13:56:52.899Z,45.50
2018-03-15T13:59:20.427Z,45.50
2018-03-15T14:01:48.644Z,46.90
2018-03-15T14:04:20.209Z,46.00
2018-03-15T14:06:47.754Z,43.40
2018-03-15T14:09:19.997Z,42.80
2018-03-15T14:11:52.829Z,41.20
2018-03-15T14:14:20.722Z,41.20
2018-03-15T14:16:48.240Z,43.10
2018-03-15T14:19:19.813Z,43.40
2018-03-15T14:21:47.341Z,43.90
2018-03-15T14:24:19.577Z,44.40
2018-03-15T14:26:47.121Z,46.50
2018-03-15T14:29:14.682Z,46.50
2018-03-15T14:31:43.231Z,45.60
2018-03-15T14:34:10.744Z,44.50
2018-03-15T14:36:41.462Z,44.30
2018-03-15T14:39:09.008Z,44.20
2018-03-15T14:41:36.585Z,43.20
2018-03-15T14:44:08.063Z,43.50
2018-03-15T14:46:36.596Z,44.90
2018-03-15T14:49:05.004Z,44.80
2018-03-15T14:51:33.333Z,44.70
2018-03-15T14:54:00.858Z,44.80
2018-03-15T14:56:32.388Z,44.60
2018-03-15T14:59:05.261Z,44.90
2018-03-15T15:01:33.447Z,44.90
2018-03-15T15:04:00.975Z,44.70
2018-03-15T15:06:28.519Z,45.20
2018-03-15T15:09:00.407Z,44.60
2018-03-15T15:11:27.960Z,45.00
2018-03-15T15:14:27.240Z,45.00
2018-03-15T15:16:54.802Z,46.00
2018-03-15T15:19:28.392Z,46.80
2018-03-15T15:21:56.251Z,47.70
2018-03-15T15:24:24.532Z,47.90
2018-03-15T15:26:52.065Z,47.90
2018-03-15T15:29:19.635Z,48.30
2018-03-15T15:31:48.227Z,49.10
2018-03-15T15:34:16.516Z,49.60
2018-03-15T15:36:44.043Z,49.60
2018-03-15T15:39:11.577Z,50.40
2018-03-15T15:41:39.085Z,50.80
2018-03-15T15:44:07.390Z,51.70
2018-03-15T15:46:34.902Z,51.60
2018-03-15T15:49:02.465Z,52.00
2018-03-15T15:51:29.979Z,53.70
2018-03-15T15:53:57.485Z,52.60
2018-03-15T15:56:25.792Z,53.40
2018-03-15T15:58:53.341Z,52.70
2018-03-15T16:01:20.838Z,52.30
2018-03-15T16:03:48.931Z,52.90
2018-03-15T16:06:16.472Z,53.60
2018-03-15T16:08:44.745Z,53.70
2018-03-15T16:11:12.289Z,53.40
2018-03-15T16:13:40.394Z,53.40
2018-03-15T16:16:07.910Z,54.20
2018-03-15T16:18:35.441Z,54.00
2018-03-15T16:21:03.721Z,54.80
2018-03-15T16:23:32.054Z,55.30
2018-03-15T16:25:59.566Z,55.30
2018-03-15T16:28:27.858Z,54.70
2018-03-15T16:30:55.376Z,54.60
2018-03-15T16:33:22.902Z,54.60
2018-03-15T16:35:50.407Z,54.90
2018-03-15T16:38:17.933Z,55.10
2018-03-15T16:40:45.476Z,55.50
2018-03-15T16:43:13.266Z,55.90
2018-03-15T16:45:40.665Z,57.30
2018-03-15T16:48:09.607Z,57.50
2018-03-15T16:50:37.133Z,57.50
2018-03-15T16:53:04.644Z,57.60
2018-03-15T16:55:32.169Z,58.00
2018-03-15T16:57:59.720Z,58.30
2018-03-15T17:00:27.257Z,57.90
2018-03-15T17:02:55.534Z,58.40
2018-03-15T17:05:27.753Z,58.60
2018-03-15T17:07:55.317Z,58.60
2018-03-15T17:10:22.810Z,58.80
2018-03-15T17:12:51.122Z,59.40
2018-03-15T17:15:18.648Z,59.40
2018-03-15T17:17:46.937Z,59.50
2018-03-15T17:20:15.229Z,59.60
2018-03-15T17:22:42.802Z,59.60
2018-03-15T17:25:10.340Z,59.90
2018-03-15T17:27:38.900Z,59.50
2018-03-15T17:30:08.054Z,59.70
2018-03-15T17:32:36.555Z,59.60
2018-03-15T17:35:04.076Z,59.80
2018-03-15T17:37:31.590Z,59.80
2018-03-15T17:39:59.117Z,59.90
2018-03-15T17:42:26.624Z,59.80
2018-03-15T17:44:54.927Z,60.20
2018-03-15T17:47:22.452Z,60.20
2018-03-15T17:49:50.770Z,60.60
2018-03-15T17:52:18.396Z,60.60
2018-03-15T17:54:45.864Z,60.20
2018-03-15T17:57:14.163Z,59.60
2018-03-15T17:59:41.886Z,59.60
2018-03-15T18:02:09.436Z,59.70
2018-03-15T18:04:37.045Z,59.90
2018-03-15T18:07:04.564Z,59.80
2018-03-15T18:09:32.878Z,59.80
2018-03-15T18:12:00.498Z,59.80
2018-03-15T18:14:28.033Z,59.50
2018-03-15T18:16:56.097Z,59.60
2018-03-15T18:19:25.214Z,60.00
2018-03-15T18:21:52.765Z,60.00
2018-03-15T18:24:20.296Z,59.50
2018-03-15T18:26:47.843Z,59.90
2018-03-15T18:29:15.364Z,59.60
2018-03-15T18:31:42.906Z,59.80
2018-03-15T18:34:10.429Z,60.40
2018-03-15T18:36:37.994Z,60.10
2018-03-15T18:39:05.512Z,60.70
2018-03-15T18:41:33.036Z,60.30
2018-03-15T18:44:00.562Z,60.40
2018-03-15T18:46:28.112Z,61.10
2018-03-15T18:48:55.637Z,61.30
2018-03-15T18:51:23.137Z,61.60
2018-03-15T18:53:51.301Z,61.50
2018-03-15T18:56:19.715Z,61.30
2018-03-15T18:58:47.245Z,61.30
2018-03-15T19:01:14.765Z,61.50
2018-03-15T19:03:42.318Z,61.10
2018-03-15T19:06:09.874Z,60.70
2018-03-15T19:08:37.387Z,60.80
2018-03-15T19:11:05.771Z,60.90
2018-03-15T19:13:33.306Z,61.10
2018-03-15T19:16:01.596Z,61.00
2018-03-15T19:18:29.998Z,61.40
2018-03-15T19:20:57.586Z,61.30
2018-03-15T19:23:25.144Z,61.20
2018-03-15T19:25:52.748Z,61.60
2018-03-15T19:28:20.264Z,61.40
2018-03-15T19:43:48.599Z,64.10
2018-03-15T19:46:16.136Z,64.10
2018-03-15T19:48:44.448Z,63.10
2018-03-15T19:51:12.011Z,63.10
2018-03-15T19:53:39.541Z,61.60
2018-03-15T19:56:11.794Z,62.40
2018-03-15T19:58:40.948Z,62.00
2018-03-15T20:01:09.180Z,61.90
2018-03-15T20:03:37.523Z,61.70
2018-03-15T20:06:05.729Z,61.70
2018-03-15T20:08:35.474Z,61.90
2018-03-15T20:11:09.362Z,61.90
2018-03-15T20:13:36.905Z,62.40
2018-03-15T20:16:05.030Z,62.80
2018-03-15T20:18:33.601Z,62.70
2018-03-15T20:21:01.564Z,62.90
2018-03-15T20:23:34.774Z,62.50
2018-03-15T20:26:02.365Z,62.80
2018-03-15T20:28:35.482Z,63.30
2018-03-15T20:31:05.322Z,63.00
2018-03-15T20:33:38.490Z,63.00
2018-03-15T20:36:06.798Z,63.40
2018-03-15T20:38:35.231Z,63.40
2018-03-15T20:41:09.176Z,64.00
2018-03-15T20:43:36.699Z,64.50
2018-03-15T20:46:10.715Z,64.00
2018-03-15T20:48:43.880Z,64.00
2018-03-15T20:51:15.575Z,64.20
2018-03-15T20:53:43.840Z,64.40
2018-03-15T20:56:13.077Z,64.60
2018-03-15T20:58:40.646Z,64.60
2018-03-15T21:01:08.196Z,65.20
2018-03-15T21:03:35.750Z,65.90
2018-03-15T21:06:03.278Z,66.40
2018-03-15T21:08:31.662Z,66.80
2018-03-15T21:10:59.953Z,66.90
2018-03-15T21:13:28.246Z,67.20
2018-03-15T21:15:56.223Z,67.20
2018-03-15T21:18:23.833Z,67.80
2018-03-15T21:20:51.389Z,67.80
2018-03-15T21:23:22.950Z,67.80
2018-03-15T21:25:51.275Z,68.10
2018-03-15T21:28:19.569Z,67.70
2018-03-15T21:30:47.079Z,67.70
2018-03-15T21:33:17.498Z,67.90
2018-03-15T21:35:49.797Z,68.20
2018-03-15T21:38:17.312Z,68.10
2018-03-15T21:40:44.894Z,68.30
2018-03-15T21:43:13.221Z,68.10
2018-03-15T21:45:41.500Z,68.40
2018-03-15T21:48:09.006Z,67.80
2018-03-15T21:50:37.294Z,67.80
2018-03-15T21:53:05.592Z,67.80
2018-03-15T21:55:33.137Z,67.80
2018-03-15T21:58:00.657Z,67.90
2018-03-15T22:00:28.205Z,68.70
2018-03-15T22:02:56.205Z,68.50
2018-03-15T22:05:24.503Z,68.50
2018-03-15T22:07:52.028Z,68.50
2018-03-15T22:10:20.272Z,68.80
2018-03-15T22:12:47.788Z,69.20
2018-03-15T22:15:16.074Z,69.40
2018-03-15T22:17:44.316Z,69.30
2018-03-15T22:20:11.842Z,69.20
2018-03-15T22:22:39.976Z,69.60
2018-03-15T22:25:08.274Z,68.80
2018-03-15T22:27:35.833Z,68.80
2018-03-15T22:30:03.341Z,69.00
2018-03-15T22:32:31.632Z,70.00
2018-03-15T22:34:59.169Z,69.30
2018-03-15T22:37:26.671Z,69.30
2018-03-15T22:39:54.977Z,68.70
2018-03-15T22:42:22.482Z,68.70
2018-03-15T22:44:51.006Z,68.40
2018-03-15T22:47:18.620Z,68.80
2018-03-15T22:49:46.216Z,69.40
2018-03-15T22:52:13.777Z,69.50
2018-03-15T22:54:41.289Z,69.20
2018-03-15T22:57:08.822Z,69.20
2018-03-15T22:59:36.336Z,69.10
2018-03-15T23:02:05.238Z,69.10
2018-03-15T23:04:32.760Z,69.10
2018-03-15T23:07:00.320Z,69.10
2018-03-15T23:09:27.929Z,68.80
2018-03-15T23:11:55.476Z,68.90
2018-03-15T23:14:23.767Z,69.70
2018-03-15T23:16:51.276Z,69.70
2018-03-15T23:19:19.438Z,70.10
2018-03-15T23:21:46.949Z,69.50
2018-03-15T23:24:15.248Z,68.80
2018-03-15T23:26:42.752Z,68.80
2018-03-15T23:29:10.261Z,69.00
2018-03-15T23:31:37.820Z,69.00
2018-03-15T23:34:05.380Z,68.70
2018-03-15T23:36:32.917Z,68.50
2018-03-15T23:39:01.882Z,69.30
2018-03-15T23:41:29.415Z,69.30
2018-03-15T23:43:56.925Z,69.50
2018-03-15T23:46:25.203Z,70.30
2018-03-15T23:48:53.493Z,70.00
2018-03-15T23:51:21.008Z,70.00
2018-03-15T23:53:48.533Z,69.70
2018-03-15T23:56:16.045Z,69.30
2018-03-15T23:58:43.649Z,69.50
